Rechercher aéroport 
image banner adimage banner adimage banner ad
image banner ad

L00 - Rosamond Skypark

Situé à Rosamond, United States

ICAO - L00, IATA -

Données fournies par Airmate  

Information générale

Coordonnées: N34°52'14" W118°12'20"
Élévation : 2415 feet MSL.
Variation magnétique : 14° East
Voir autres Aéroports à California

Données opérationnelles

Special qualification required
Heure actuelle UTC:
Heure actuelle locale:
Météo à : KWJF - General Wm J Fox Airfield ( 14 km )
METAR: KWJF 292256Z 22019G23KT 10SM CLR 39/05 A2989 RMK AO2 SLP095 T03890050
TAF: KWJF 291736Z 2918/3018 00000KT P6SM SKC FM291900 23010KT P6SM SKC FM292300 23015G23KT P6SM SKC FM300300 23012KT P6SM SKC FM300800 21007KT P6SM SKC
Voir NOTAMs / SUP AIP / TFR affectant cet aéroport [VIEW]
Fréquences de communication: [VIEW]

Pistes:

Identifiant RWYQFULongueur (ft)Largeur (ft)SurfaceLDA (ft)
08360050ASPH
26360050ASPH

Coordonnées de l'aéroport

Adresse: Rosamond United States

Vue satellite de L00